sensor_id;sensor_type;location;lat;lon;timestamp;temperature;humidity
4183;DHT22;2105;52.300;9.182;2024-01-06T16:50:16;2.40;99.90
4183;DHT22;2105;52.300;9.182;2024-01-06T16:52:42;2.00;99.90
4183;DHT22;2105;52.300;9.182;2024-01-06T16:55:09;1.90;99.90
4183;DHT22;2105;52.300;9.182;2024-01-06T16:57:36;1.90;99.90
4183;DHT22;2105;52.300;9.182;2024-01-06T17:00:03;2.00;99.90
4183;DHT22;2105;52.300;9.182;2024-01-06T17:02:31;2.00;99.90
4183;DHT22;2105;52.300;9.182;2024-01-06T17:04:57;2.00;99.90
4183;DHT22;2105;52.300;9.182;2024-01-06T17:07:25;2.00;99.90
4183;DHT22;2105;52.300;9.182;2024-01-06T17:09:52;2.00;99.90
4183;DHT22;2105;52.300;9.182;2024-01-06T17:12:20;1.90;99.90
4183;DHT22;2105;52.300;9.182;2024-01-06T17:14:47;1.90;99.90
4183;DHT22;2105;52.300;9.182;2024-01-06T17:17:13;1.90;99.90
4183;DHT22;2105;52.300;9.182;2024-01-06T17:19:40;1.90;99.90
4183;DHT22;2105;52.300;9.182;2024-01-06T17:22:07;1.90;99.90
4183;DHT22;2105;52.300;9.182;2024-01-06T17:24:34;1.80;99.90
4183;DHT22;2105;52.300;9.182;2024-01-06T17:27:01;1.80;99.90
4183;DHT22;2105;52.300;9.182;2024-01-06T17:29:28;1.90;99.90
4183;DHT22;2105;52.300;9.182;2024-01-06T17:31:55;1.90;99.90
4183;DHT22;2105;52.300;9.182;2024-01-06T17:34:22;1.80;99.90
4183;DHT22;2105;52.300;9.182;2024-01-06T17:36:49;1.80;99.90
4183;DHT22;2105;52.300;9.182;2024-01-06T17:39:15;1.80;99.90
4183;DHT22;2105;52.300;9.182;2024-01-06T17:41:44;1.80;99.90
4183;DHT22;2105;52.300;9.182;2024-01-06T17:44:10;1.80;99.90
4183;DHT22;2105;52.300;9.182;2024-01-06T17:46:37;1.70;99.90
4183;DHT22;2105;52.300;9.182;2024-01-06T17:49:04;1.70;99.90
4183;DHT22;2105;52.300;9.182;2024-01-06T17:51:32;1.80;99.90
4183;DHT22;2105;52.300;9.182;2024-01-06T17:53:59;1.80;99.90
4183;DHT22;2105;52.300;9.182;2024-01-06T17:56:25;1.80;99.90
4183;DHT22;2105;52.300;9.182;2024-01-06T17:58:53;1.80;99.90
4183;DHT22;2105;52.300;9.182;2024-01-06T18:01:25;1.80;99.90
4183;DHT22;2105;52.300;9.182;2024-01-06T18:03:52;1.70;99.90
4183;DHT22;2105;52.300;9.182;2024-01-06T18:06:19;1.70;99.90
4183;DHT22;2105;52.300;9.182;2024-01-06T18:08:46;1.70;99.90
4183;DHT22;2105;52.300;9.182;2024-01-06T18:11:13;1.70;99.90
4183;DHT22;2105;52.300;9.182;2024-01-06T18:13:40;1.60;99.90
4183;DHT22;2105;52.300;9.182;2024-01-06T18:16:08;1.70;99.90
4183;DHT22;2105;52.300;9.182;2024-01-06T18:18:35;1.60;99.90
4183;DHT22;2105;52.300;9.182;2024-01-06T18:21:02;1.50;99.90
4183;DHT22;2105;52.300;9.182;2024-01-06T18:23:29;1.50;99.90
4183;DHT22;2105;52.300;9.182;2024-01-06T18:25:55;1.50;99.90
4183;DHT22;2105;52.300;9.182;2024-01-06T18:28:22;1.60;99.90
4183;DHT22;2105;52.300;9.182;2024-01-06T18:30:49;1.50;99.90
4183;DHT22;2105;52.300;9.182;2024-01-06T18:33:19;1.50;99.90
4183;DHT22;2105;52.300;9.182;2024-01-06T18:35:46;1.50;99.90
4183;DHT22;2105;52.300;9.182;2024-01-06T18:38:13;1.50;99.90
4183;DHT22;2105;52.300;9.182;2024-01-06T18:40:40;1.50;99.90
4183;DHT22;2105;52.300;9.182;2024-01-06T18:43:06;1.50;99.90
4183;DHT22;2105;52.300;9.182;2024-01-06T18:45:33;1.50;99.90
4183;DHT22;2105;52.300;9.182;2024-01-06T18:47:59;1.40;99.90
4183;DHT22;2105;52.300;9.182;2024-01-06T18:50:27;1.40;99.90
4183;DHT22;2105;52.300;9.182;2024-01-06T18:52:54;1.40;99.90
4183;DHT22;2105;52.300;9.182;2024-01-06T18:55:21;1.40;99.90
4183;DHT22;2105;52.300;9.182;2024-01-06T18:57:47;1.40;99.90
4183;DHT22;2105;52.300;9.182;2024-01-06T19:00:15;1.40;99.90
4183;DHT22;2105;52.300;9.182;2024-01-06T19:02:44;1.40;99.90
4183;DHT22;2105;52.300;9.182;2024-01-06T19:05:12;1.40;99.90
4183;DHT22;2105;52.300;9.182;2024-01-06T19:07:43;1.40;99.90
4183;DHT22;2105;52.300;9.182;2024-01-06T19:10:10;1.40;99.90
4183;DHT22;2105;52.300;9.182;2024-01-06T19:12:38;1.50;99.90
4183;DHT22;2105;52.300;9.182;2024-01-06T19:15:05;1.40;99.90
4183;DHT22;2105;52.300;9.182;2024-01-06T19:17:32;1.40;99.90
4183;DHT22;2105;52.300;9.182;2024-01-06T19:20:00;1.30;99.90
4183;DHT22;2105;52.300;9.182;2024-01-06T19:22:27;1.30;99.90
4183;DHT22;2105;52.300;9.182;2024-01-06T19:24:55;1.30;99.90
4183;DHT22;2105;52.300;9.182;2024-01-06T19:27:21;1.30;99.90
4183;DHT22;2105;52.300;9.182;2024-01-06T19:29:48;1.30;99.90
4183;DHT22;2105;52.300;9.182;2024-01-06T19:32:18;1.30;99.90
4183;DHT22;2105;52.300;9.182;2024-01-06T19:34:44;1.40;99.90
4183;DHT22;2105;52.300;9.182;2024-01-06T19:37:14;1.40;99.90
4183;DHT22;2105;52.300;9.182;2024-01-06T19:39:41;1.40;99.90
4183;DHT22;2105;52.300;9.182;2024-01-06T19:42:09;1.40;99.90
4183;DHT22;2105;52.300;9.182;2024-01-06T19:44:36;1.30;99.90
4183;DHT22;2105;52.300;9.182;2024-01-06T19:47:04;1.30;99.90
4183;DHT22;2105;52.300;9.182;2024-01-06T19:49:31;1.30;99.90
4183;DHT22;2105;52.300;9.182;2024-01-06T19:51:58;1.20;99.90
4183;DHT22;2105;52.300;9.182;2024-01-06T19:54:24;1.20;99.90
4183;DHT22;2105;52.300;9.182;2024-01-06T19:56:51;1.20;99.90
4183;DHT22;2105;52.300;9.182;2024-01-06T19:59:19;1.20;99.90
4183;DHT22;2105;52.300;9.182;2024-01-06T20:01:46;1.20;99.90
4183;DHT22;2105;52.300;9.182;2024-01-06T20:04:13;1.10;99.90
4183;DHT22;2105;52.300;9.182;2024-01-06T20:06:40;1.10;99.90
4183;DHT22;2105;52.300;9.182;2024-01-06T20:09:08;1.10;99.90
4183;DHT22;2105;52.300;9.182;2024-01-06T20:11:35;1.10;99.90
4183;DHT22;2105;52.300;9.182;2024-01-06T20:14:02;1.10;99.90
4183;DHT22;2105;52.300;9.182;2024-01-06T20:16:30;1.10;99.90
4183;DHT22;2105;52.300;9.182;2024-01-06T20:18:57;1.10;99.90
4183;DHT22;2105;52.300;9.182;2024-01-06T20:21:24;1.10;99.90
4183;DHT22;2105;52.300;9.182;2024-01-06T20:23:50;1.10;99.90
4183;DHT22;2105;52.300;9.182;2024-01-06T20:26:17;1.10;99.90
4183;DHT22;2105;52.300;9.182;2024-01-06T20:28:45;1.10;99.90
4183;DHT22;2105;52.300;9.182;2024-01-06T20:31:13;1.10;99.90
4183;DHT22;2105;52.300;9.182;2024-01-06T20:33:41;1.10;99.90
4183;DHT22;2105;52.300;9.182;2024-01-06T20:36:09;1.10;99.90
4183;DHT22;2105;52.300;9.182;2024-01-06T20:38:38;1.00;99.90
4183;DHT22;2105;52.300;9.182;2024-01-06T20:41:06;1.00;99.90
4183;DHT22;2105;52.300;9.182;2024-01-06T20:43:34;1.00;99.90
4183;DHT22;2105;52.300;9.182;2024-01-06T20:46:00;0.90;99.90
4183;DHT22;2105;52.300;9.182;2024-01-06T20:48:27;1.00;99.90
4183;DHT22;2105;52.300;9.182;2024-01-06T20:50:55;0.90;99.90
4183;DHT22;2105;52.300;9.182;2024-01-06T20:53:21;0.90;99.90
4183;DHT22;2105;52.300;9.182;2024-01-06T20:55:48;0.90;99.90
4183;DHT22;2105;52.300;9.182;2024-01-06T20:58:15;1.00;99.90
4183;DHT22;2105;52.300;9.182;2024-01-06T21:00:41;1.00;99.90
4183;DHT22;2105;52.300;9.182;2024-01-06T21:03:08;0.90;99.90
4183;DHT22;2105;52.300;9.182;2024-01-06T21:05:35;0.90;99.90
4183;DHT22;2105;52.300;9.182;2024-01-06T21:08:04;0.90;99.90
4183;DHT22;2105;52.300;9.182;2024-01-06T21:10:31;0.90;99.90
4183;DHT22;2105;52.300;9.182;2024-01-06T21:12:58;0.80;99.90
4183;DHT22;2105;52.300;9.182;2024-01-06T21:15:24;0.90;99.90
4183;DHT22;2105;52.300;9.182;2024-01-06T21:17:51;0.90;99.90
4183;DHT22;2105;52.300;9.182;2024-01-06T21:20:18;0.90;99.90
4183;DHT22;2105;52.300;9.182;2024-01-06T21:22:45;0.90;99.90
4183;DHT22;2105;52.300;9.182;2024-01-06T21:25:18;0.90;99.90
4183;DHT22;2105;52.300;9.182;2024-01-06T21:27:45;0.90;99.90
4183;DHT22;2105;52.300;9.182;2024-01-06T21:30:11;0.90;99.90
4183;DHT22;2105;52.300;9.182;2024-01-06T21:32:38;0.80;99.90
4183;DHT22;2105;52.300;9.182;2024-01-06T21:35:05;0.80;99.90
4183;DHT22;2105;52.300;9.182;2024-01-06T21:37:32;0.80;99.90
4183;DHT22;2105;52.300;9.182;2024-01-06T21:39:58;0.80;99.90
4183;DHT22;2105;52.300;9.182;2024-01-06T21:42:32;0.80;99.90
4183;DHT22;2105;52.300;9.182;2024-01-06T21:44:59;0.80;99.90
4183;DHT22;2105;52.300;9.182;2024-01-06T21:47:25;0.80;99.90
4183;DHT22;2105;52.300;9.182;2024-01-06T21:49:52;0.80;99.90
4183;DHT22;2105;52.300;9.182;2024-01-06T21:52:19;0.90;99.90
4183;DHT22;2105;52.300;9.182;2024-01-06T21:54:46;0.80;99.90
4183;DHT22;2105;52.300;9.182;2024-01-06T21:57:12;0.80;99.90
4183;DHT22;2105;52.300;9.182;2024-01-06T21:59:40;0.80;99.90
4183;DHT22;2105;52.300;9.182;2024-01-06T22:02:07;0.80;99.90
4183;DHT22;2105;52.300;9.182;2024-01-06T22:04:34;0.80;99.90
4183;DHT22;2105;52.300;9.182;2024-01-06T22:07:00;0.80;99.90
4183;DHT22;2105;52.300;9.182;2024-01-06T22:09:27;0.80;99.90
4183;DHT22;2105;52.300;9.182;2024-01-06T22:11:54;0.80;99.90
4183;DHT22;2105;52.300;9.182;2024-01-06T22:14:22;0.80;99.90
4183;DHT22;2105;52.300;9.182;2024-01-06T22:16:50;0.80;99.90
4183;DHT22;2105;52.300;9.182;2024-01-06T22:19:17;0.80;99.90
4183;DHT22;2105;52.300;9.182;2024-01-06T22:21:43;0.80;99.90
4183;DHT22;2105;52.300;9.182;2024-01-06T22:24:11;0.80;99.90
4183;DHT22;2105;52.300;9.182;2024-01-06T22:26:38;0.80;99.90
4183;DHT22;2105;52.300;9.182;2024-01-06T22:29:05;0.90;99.90
4183;DHT22;2105;52.300;9.182;2024-01-06T22:31:32;0.80;99.90
4183;DHT22;2105;52.300;9.182;2024-01-06T22:34:00;0.80;99.90
4183;DHT22;2105;52.300;9.182;2024-01-06T22:36:27;0.80;99.90
4183;DHT22;2105;52.300;9.182;2024-01-06T22:38:53;0.70;99.90
4183;DHT22;2105;52.300;9.182;2024-01-06T22:41:20;0.70;99.90
4183;DHT22;2105;52.300;9.182;2024-01-06T22:43:46;0.70;99.90
4183;DHT22;2105;52.300;9.182;2024-01-06T22:46:13;0.70;99.90
4183;DHT22;2105;52.300;9.182;2024-01-06T22:48:40;0.70;99.90
4183;DHT22;2105;52.300;9.182;2024-01-06T22:51:08;0.70;99.90
4183;DHT22;2105;52.300;9.182;2024-01-06T22:53:35;0.60;99.90
4183;DHT22;2105;52.300;9.182;2024-01-06T22:56:02;0.60;99.90
4183;DHT22;2105;52.300;9.182;2024-01-06T22:58:28;0.60;99.90
4183;DHT22;2105;52.300;9.182;2024-01-06T23:00:55;0.60;99.90
4183;DHT22;2105;52.300;9.182;2024-01-06T23:03:22;0.60;99.90
4183;DHT22;2105;52.300;9.182;2024-01-06T23:05:49;0.60;99.90
4183;DHT22;2105;52.300;9.182;2024-01-06T23:08:18;0.60;99.90
4183;DHT22;2105;52.300;9.182;2024-01-06T23:10:45;0.60;99.90
4183;DHT22;2105;52.300;9.182;2024-01-06T23:13:12;0.50;99.90
4183;DHT22;2105;52.300;9.182;2024-01-06T23:15:38;0.60;99.90
4183;DHT22;2105;52.300;9.182;2024-01-06T23:18:05;0.60;99.90
4183;DHT22;2105;52.300;9.182;2024-01-06T23:20:32;0.50;99.90
4183;DHT22;2105;52.300;9.182;2024-01-06T23:22:59;0.50;99.90
4183;DHT22;2105;52.300;9.182;2024-01-06T23:25:27;0.50;99.90
4183;DHT22;2105;52.300;9.182;2024-01-06T23:27:53;0.50;99.90
4183;DHT22;2105;52.300;9.182;2024-01-06T23:30:20;0.60;99.90
4183;DHT22;2105;52.300;9.182;2024-01-06T23:32:47;0.60;99.90
4183;DHT22;2105;52.300;9.182;2024-01-06T23:35:14;0.60;99.90
4183;DHT22;2105;52.300;9.182;2024-01-06T23:37:41;0.50;99.90
4183;DHT22;2105;52.300;9.182;2024-01-06T23:40:08;0.50;99.90
4183;DHT22;2105;52.300;9.182;2024-01-06T23:42:36;0.50;99.90
4183;DHT22;2105;52.300;9.182;2024-01-06T23:45:03;0.60;99.90
4183;DHT22;2105;52.300;9.182;2024-01-06T23:47:30;0.50;99.90
4183;DHT22;2105;52.300;9.182;2024-01-06T23:49:57;0.50;99.90
4183;DHT22;2105;52.300;9.182;2024-01-06T23:52:23;0.50;99.90
4183;DHT22;2105;52.300;9.182;2024-01-06T23:54:50;0.50;99.90
4183;DHT22;2105;52.300;9.182;2024-01-06T23:57:16;0.50;99.90
4183;DHT22;2105;52.300;9.182;2024-01-06T23:59:44;0.50;99.90
